createdAt,value
2023-03-11T00:00:46.874Z,90494.63
2023-03-11T00:03:14.315Z,90495.09
2023-03-11T00:05:42.023Z,90518.78
2023-03-11T00:08:09.397Z,90527.28
2023-03-11T00:10:40.903Z,90542.38
2023-03-11T00:13:08.349Z,90512.06
2023-03-11T00:15:35.027Z,90478.09
2023-03-11T00:18:01.520Z,90436.94
2023-03-11T00:20:30.396Z,90393.81
2023-03-11T00:22:57.149Z,90385.53
2023-03-11T00:25:24.983Z,90370.88
2023-03-11T00:27:51.371Z,90353.13
2023-03-11T00:30:18.359Z,90326.16
2023-03-11T00:32:44.759Z,90290.16
2023-03-11T00:35:15.840Z,90321.25
2023-03-11T00:37:42.369Z,90353.13
2023-03-11T00:40:12.668Z,90360.59
2023-03-11T00:42:39.044Z,90384.53
2023-03-11T00:45:05.907Z,90407.09
2023-03-11T00:47:32.279Z,90436.94
2023-03-11T00:49:58.616Z,90449.28
2023-03-11T00:52:25.002Z,90471.09
2023-03-11T00:54:51.348Z,90500.91
2023-03-11T00:57:17.875Z,90519.69
2023-03-11T00:59:44.233Z,90538.25
2023-03-11T01:02:10.639Z,90570.56
2023-03-11T01:04:37.043Z,90585.00
2023-03-11T01:07:03.607Z,90615.06
2023-03-11T01:09:29.956Z,90629.69
2023-03-11T01:11:56.476Z,90663.69
2023-03-11T01:14:23.025Z,90673.97
2023-03-11T01:16:49.425Z,90680.66
2023-03-11T01:19:16.019Z,90690.97
2023-03-11T01:21:43.063Z,90694.53
2023-03-11T01:24:09.507Z,90710.97
2023-03-11T01:26:35.851Z,90710.97
2023-03-11T01:29:02.210Z,90741.84
2023-03-11T01:31:28.627Z,90749.56
2023-03-11T01:33:55.205Z,90770.88
2023-03-11T01:36:21.559Z,90790.22
2023-03-11T01:38:48.086Z,90819.97
2023-03-11T01:41:14.454Z,90840.09
2023-03-11T01:43:43.790Z,90857.53
2023-03-11T01:46:32.376Z,90880.69
2023-03-11T01:48:59.917Z,90910.97
2023-03-11T01:51:33.622Z,90931.53
2023-03-11T01:54:02.448Z,90969.53
2023-03-11T01:56:28.810Z,90994.81
2023-03-11T01:58:55.171Z,91022.53
2023-03-11T02:01:21.644Z,91053.94
2023-03-11T02:03:48.158Z,91072.94
2023-03-11T02:06:16.882Z,91087.38
2023-03-11T02:08:43.385Z,91138.25
2023-03-11T02:11:12.521Z,91169.66
2023-03-11T02:13:38.902Z,91195.38
2023-03-11T02:16:05.744Z,91222.69
2023-03-11T02:18:32.161Z,91238.09
2023-03-11T02:21:16.957Z,91255.09
2023-03-11T02:24:09.557Z,91269.31
2023-03-11T02:26:54.980Z,91313.25
2023-03-11T02:29:21.599Z,91334.16
2023-03-11T02:31:48.158Z,91364.25
2023-03-11T02:34:19.960Z,91407.75
2023-03-11T02:36:46.376Z,91447.53
2023-03-11T02:39:12.757Z,91508.28
2023-03-11T02:41:40.763Z,91564.88
2023-03-11T02:44:08.148Z,91595.31
2023-03-11T02:46:35.656Z,91650.31
2023-03-11T02:49:02.095Z,91700.19
2023-03-11T02:51:28.456Z,91744.91
2023-03-11T02:53:56.970Z,91788.03
2023-03-11T02:56:23.331Z,91819.50
2023-03-11T02:58:49.897Z,91864.78
2023-03-11T03:01:16.301Z,91938.38
2023-03-11T03:03:42.934Z,91947.50
2023-03-11T03:06:09.717Z,91972.22
2023-03-11T03:08:36.076Z,91979.56
2023-03-11T03:11:03.443Z,92023.06
2023-03-11T03:13:30.750Z,92055.91
2023-03-11T03:15:57.285Z,92070.16
2023-03-11T03:18:23.827Z,92108.09
2023-03-11T03:20:51.216Z,92142.16
2023-03-11T03:23:17.689Z,92196.91
2023-03-11T03:25:44.564Z,92272.81
2023-03-11T03:28:11.952Z,92278.25
2023-03-11T03:30:38.613Z,92331.25
2023-03-11T03:33:05.026Z,92381.47
2023-03-11T03:35:31.464Z,92427.75
2023-03-11T03:37:57.875Z,92467.31
2023-03-11T03:40:24.314Z,92511.03
2023-03-11T03:42:50.738Z,92552.78
2023-03-11T03:45:17.164Z,92597.31
2023-03-11T03:47:43.503Z,92645.38
2023-03-11T03:50:10.808Z,92688.50
2023-03-11T03:52:37.416Z,92735.72
2023-03-11T03:55:04.672Z,92769.16
2023-03-11T03:57:31.433Z,92804.56
2023-03-11T03:59:57.840Z,92855.84
2023-03-11T04:02:24.500Z,92879.44
2023-03-11T04:04:50.952Z,92922.53
2023-03-11T04:07:17.502Z,92963.03
2023-03-11T04:09:43.948Z,92985.22
2023-03-11T04:12:14.720Z,93033.47
2023-03-11T04:14:42.139Z,93070.28
2023-03-11T04:17:10.335Z,93098.72
2023-03-11T04:19:36.931Z,93145.66
2023-03-11T04:22:03.277Z,93199.66
2023-03-11T04:24:29.711Z,93240.81
2023-03-11T04:26:56.049Z,93299.34
2023-03-11T04:29:22.448Z,93362.69
2023-03-11T04:31:49.029Z,93424.72
2023-03-11T04:34:15.396Z,93506.72
2023-03-11T04:36:44.630Z,93564.91
2023-03-11T04:39:11.345Z,93623.44
2023-03-11T04:41:37.730Z,93655.09
2023-03-11T04:44:04.332Z,93697.91
2023-03-11T04:46:30.729Z,93736.31
2023-03-11T04:48:57.520Z,93758.81
2023-03-11T04:51:24.056Z,93787.75
2023-03-11T04:53:50.437Z,93809.84
2023-03-11T04:56:16.820Z,93830.03
2023-03-11T04:58:43.237Z,93848.19
2023-03-11T05:01:09.646Z,93872.59
2023-03-11T05:03:36.052Z,93862.66
2023-03-11T05:06:02.402Z,93865.25
2023-03-11T05:08:29.009Z,93886.63
2023-03-11T05:10:55.386Z,93893.69
2023-03-11T05:13:21.962Z,93900.44
2023-03-11T05:15:48.567Z,93942.97
2023-03-11T05:18:15.232Z,93982.50
2023-03-11T05:20:41.589Z,94001.22
2023-03-11T05:23:08.125Z,94032.06
2023-03-11T05:25:35.424Z,94059.41
2023-03-11T05:28:01.963Z,94100.44
2023-03-11T05:30:28.336Z,94126.28
2023-03-11T05:32:56.328Z,94149.31
2023-03-11T05:35:23.027Z,94166.63
2023-03-11T05:37:53.539Z,94210.78
2023-03-11T05:40:20.371Z,94228.66
2023-03-11T05:42:46.893Z,94240.69
2023-03-11T05:45:13.564Z,94239.75
2023-03-11T05:47:42.342Z,94243.13
2023-03-11T05:50:10.435Z,94258.97
2023-03-11T05:52:37.013Z,94258.72
2023-03-11T05:55:03.706Z,94255.19
2023-03-11T05:57:30.070Z,94246.50
2023-03-11T05:59:56.826Z,94244.63
2023-03-11T06:02:23.342Z,94238.38
2023-03-11T06:04:49.849Z,94252.47
2023-03-11T06:07:16.380Z,94247.31
2023-03-11T06:09:42.927Z,94236.50
2023-03-11T06:12:09.347Z,94250.31
2023-03-11T06:14:35.900Z,94256.41
2023-03-11T06:17:03.918Z,94267.78
2023-03-11T06:19:30.269Z,94265.22
2023-03-11T06:21:57.044Z,94269.00
2023-03-11T06:24:23.425Z,94274.66
2023-03-11T06:26:53.009Z,94275.25
2023-03-11T06:29:19.556Z,94285.53
2023-03-11T06:31:45.971Z,94302.59
2023-03-11T06:34:12.540Z,94316.41
2023-03-11T06:36:38.931Z,94331.84
2023-03-11T06:39:05.343Z,94344.00
2023-03-11T06:41:34.220Z,94341.16
2023-03-11T06:44:00.660Z,94343.44
2023-03-11T06:46:27.056Z,94341.84
2023-03-11T06:48:54.112Z,94346.03
2023-03-11T06:51:20.837Z,94357.28
2023-03-11T06:53:51.881Z,94377.19
2023-03-11T06:56:18.535Z,94380.84
2023-03-11T06:58:45.807Z,94377.06
2023-03-11T07:01:15.969Z,94391.69
2023-03-11T07:03:42.729Z,94388.72
2023-03-11T07:06:20.259Z,94371.38
2023-03-11T07:08:48.164Z,94381.38
2023-03-11T07:11:16.538Z,94368.94
2023-03-11T07:13:43.055Z,94359.47
2023-03-11T07:16:15.598Z,94363.78
2023-03-11T07:18:43.158Z,94370.84
2023-03-11T07:21:09.790Z,94355.09
2023-03-11T07:23:36.249Z,94372.72
2023-03-11T07:26:02.662Z,94365.13
2023-03-11T07:28:29.163Z,94360.25
2023-03-11T07:30:55.740Z,94384.63
2023-03-11T07:33:23.941Z,94388.31
2023-03-11T07:35:50.770Z,94401.28
2023-03-11T07:38:18.008Z,94419.84
2023-03-11T07:40:44.490Z,94432.72
2023-03-11T07:43:10.979Z,94458.88
2023-03-11T07:45:37.630Z,94471.88
2023-03-11T07:48:04.678Z,94497.88
2023-03-11T07:50:31.119Z,94501.16
2023-03-11T07:52:57.518Z,94502.22
2023-03-11T07:55:23.965Z,94516.06
2023-03-11T07:57:51.612Z,94525.28
2023-03-11T08:00:18.579Z,94523.78
2023-03-11T08:02:45.131Z,94536.53
2023-03-11T08:05:11.690Z,94549.28
2023-03-11T08:07:38.200Z,94581.66
2023-03-11T08:10:04.912Z,94584.91
2023-03-11T08:12:31.348Z,94630.09
2023-03-11T08:14:57.738Z,94613.88
2023-03-11T08:17:24.096Z,94618.34
2023-03-11T08:19:50.550Z,94610.41
2023-03-11T08:22:16.949Z,94632.06
2023-03-11T08:24:43.310Z,94616.63
2023-03-11T08:27:09.749Z,94603.38
2023-03-11T08:29:36.483Z,94626.25
2023-03-11T08:32:03.319Z,94616.63
2023-03-11T08:34:29.709Z,94609.31
2023-03-11T08:36:56.612Z,94623.41
2023-03-11T08:39:23.930Z,94636.44
2023-03-11T08:41:50.318Z,94648.59
2023-03-11T08:44:16.747Z,94637.53
2023-03-11T08:46:43.294Z,94643.75
2023-03-11T08:49:09.990Z,94651.09
2023-03-11T08:51:36.515Z,94677.47
2023-03-11T08:54:03.234Z,94672.50
2023-03-11T08:56:29.645Z,94673.88
2023-03-11T08:58:56.002Z,94659.81
2023-03-11T09:01:23.824Z,94688.91
2023-03-11T09:03:50.324Z,94709.94
2023-03-11T09:06:17.124Z,94749.81
2023-03-11T09:08:44.045Z,94771.41
2023-03-11T09:11:10.455Z,94837.44
2023-03-11T09:13:37.069Z,94874.53
2023-03-11T09:16:05.851Z,94946.56
2023-03-11T09:18:32.342Z,95009.56
2023-03-11T09:21:00.884Z,95038.34
2023-03-11T09:23:27.465Z,95080.97
2023-03-11T09:25:53.821Z,95118.09
2023-03-11T09:28:20.185Z,95116.59
2023-03-11T09:30:46.575Z,95123.09
2023-03-11T09:33:12.990Z,95131.56
2023-03-11T09:35:39.453Z,95144.91
2023-03-11T09:38:05.888Z,95180.63
2023-03-11T09:41:27.277Z,95183.53
2023-03-11T09:44:00.148Z,95203.56
2023-03-11T09:46:44.915Z,95262.75
2023-03-11T09:49:38.708Z,95308.44
2023-03-11T09:52:15.608Z,95324.84
2023-03-11T09:54:43.757Z,95352.97
2023-03-11T09:57:13.350Z,95419.75
2023-03-11T09:59:39.694Z,95463.56
2023-03-11T10:02:06.056Z,95492.16
2023-03-11T10:04:41.208Z,95504.16
2023-03-11T10:07:18.951Z,95519.38
2023-03-11T10:09:48.031Z,95529.75
2023-03-11T10:12:42.243Z,95563.88
2023-03-11T10:15:39.321Z,95602.00
2023-03-11T10:18:31.215Z,95652.59
2023-03-11T10:21:01.621Z,95665.97
2023-03-11T10:23:50.424Z,95691.97
2023-03-11T10:26:28.541Z,95707.69
2023-03-11T10:28:59.005Z,95716.34
2023-03-11T10:31:32.040Z,95713.84
2023-03-11T10:34:38.146Z,95708.88
2023-03-11T10:37:19.567Z,95704.00
2023-03-11T10:39:49.144Z,95720.00
2023-03-11T10:42:22.727Z,95736.91
2023-03-11T10:44:50.539Z,95752.19
2023-03-11T10:47:23.136Z,95797.78
2023-03-11T10:49:50.153Z,95822.75
2023-03-11T10:52:17.148Z,95842.47
2023-03-11T10:54:46.300Z,95847.91
2023-03-11T10:57:27.134Z,95848.06
2023-03-11T10:59:55.289Z,95873.47
2023-03-11T11:02:28.977Z,95898.88
2023-03-11T11:05:17.358Z,95914.34
2023-03-11T11:07:44.942Z,95902.25
2023-03-11T11:10:19.908Z,95954.59
2023-03-11T11:13:02.676Z,96031.25
2023-03-11T11:15:32.111Z,96040.44
2023-03-11T11:18:06.243Z,96064.09
2023-03-11T11:20:33.247Z,96076.72
2023-03-11T11:23:03.518Z,96102.75
2023-03-11T11:25:35.672Z,96101.50
2023-03-11T11:28:19.288Z,96083.75
2023-03-11T11:30:56.657Z,96058.72
2023-03-11T11:33:25.686Z,96076.44
2023-03-11T11:35:54.839Z,96144.81
2023-03-11T11:38:25.174Z,96196.81
2023-03-11T11:40:52.561Z,96192.47
2023-03-11T11:43:21.962Z,96158.00
2023-03-11T11:45:59.635Z,96180.34
2023-03-11T11:49:06.013Z,96185.00
2023-03-11T11:51:40.346Z,96218.59
2023-03-11T11:54:25.577Z,96316.13
2023-03-11T11:56:52.234Z,96414.66
2023-03-11T11:59:20.329Z,96507.09
2023-03-11T12:02:45.536Z,96436.41
2023-03-11T12:05:26.241Z,96403.16
2023-03-11T12:07:56.254Z,96408.13
2023-03-11T12:10:32.379Z,96495.13
2023-03-11T12:13:40.519Z,96516.03
2023-03-11T12:16:30.324Z,96568.78
2023-03-11T12:18:58.828Z,96669.38
2023-03-11T12:21:31.447Z,96684.81
2023-03-11T12:24:00.806Z,96700.72
2023-03-11T12:26:27.342Z,96657.22
2023-03-11T12:29:15.681Z,96626.53
2023-03-11T12:31:42.718Z,96693.41
2023-03-11T12:34:13.200Z,96701.25
2023-03-11T12:36:40.782Z,96743.69
2023-03-11T12:39:08.715Z,96775.47
2023-03-11T12:41:38.839Z,96929.97
2023-03-11T12:44:24.837Z,97003.88
2023-03-11T12:46:54.325Z,96940.00
2023-03-11T12:49:24.543Z,96896.56
2023-03-11T12:52:00.973Z,97017.25
2023-03-11T12:54:34.890Z,97016.50
2023-03-11T12:57:03.103Z,97035.16
2023-03-11T12:59:55.908Z,97141.19
2023-03-11T13:02:52.187Z,97048.84
2023-03-11T13:05:52.785Z,96945.88
2023-03-11T13:08:20.940Z,96960.28
2023-03-11T13:10:54.540Z,97031.03
2023-03-11T13:13:32.938Z,97002.81
2023-03-11T13:16:14.815Z,97265.88
2023-03-11T13:18:42.083Z,97376.66
2023-03-11T13:21:27.445Z,97505.72
2023-03-11T13:24:32.303Z,97545.97
2023-03-11T13:26:58.816Z,97593.28
2023-03-11T13:29:52.877Z,97434.44
2023-03-11T13:32:28.402Z,97499.66
2023-03-11T13:35:10.206Z,97492.94
2023-03-11T13:37:50.736Z,97401.47
2023-03-11T13:40:33.245Z,97659.22
2023-03-11T13:43:03.844Z,97726.94
2023-03-11T13:45:32.252Z,97945.91
2023-03-11T13:48:07.664Z,97615.56
2023-03-11T13:50:40.491Z,97526.63
2023-03-11T13:53:09.626Z,97624.97
2023-03-11T13:55:41.329Z,97866.31
2023-03-11T13:58:24.445Z,97835.59
2023-03-11T14:00:53.235Z,97701.09
2023-03-11T14:03:22.127Z,97658.81
2023-03-11T14:05:50.583Z,97611.91
2023-03-11T14:08:26.933Z,97572.88
2023-03-11T14:11:00.151Z,97586.63
2023-03-11T14:13:28.731Z,97664.75
2023-03-11T14:16:05.725Z,97757.44
2023-03-11T14:19:02.045Z,97755.28
2023-03-11T14:21:28.414Z,97729.13
2023-03-11T14:23:55.262Z,97878.97
2023-03-11T14:26:23.332Z,97909.03
2023-03-11T14:28:51.483Z,97849.44
2023-03-11T14:31:34.333Z,98011.00
2023-03-11T14:34:09.807Z,98006.31
2023-03-11T14:36:46.319Z,97890.53
2023-03-11T14:39:27.955Z,97887.00
2023-03-11T14:42:19.087Z,98087.00
2023-03-11T14:45:14.652Z,98084.66
2023-03-11T14:47:45.300Z,98141.34
2023-03-11T14:50:15.489Z,98076.81
2023-03-11T14:52:42.883Z,98166.72
2023-03-11T14:55:18.330Z,98172.59
2023-03-11T14:57:46.402Z,98336.78
2023-03-11T15:00:16.046Z,98447.72
2023-03-11T15:03:01.040Z,98270.38
2023-03-11T15:05:35.639Z,98345.81
2023-03-11T15:08:02.915Z,98422.53
2023-03-11T15:10:29.394Z,98396.84
2023-03-11T15:13:10.924Z,98447.69
2023-03-11T15:15:37.348Z,98531.66
2023-03-11T15:18:04.440Z,98576.50
2023-03-11T15:20:35.308Z,98501.72
2023-03-11T15:23:05.916Z,98534.50
2023-03-11T15:25:36.793Z,98642.28
2023-03-11T15:28:24.213Z,98624.09
2023-03-11T15:30:51.775Z,98648.06
2023-03-11T15:33:32.430Z,98666.13
2023-03-11T15:35:58.860Z,98711.38
2023-03-11T15:38:26.239Z,98600.44
2023-03-11T15:40:53.913Z,98719.72
2023-03-11T15:43:25.537Z,98788.38
2023-03-11T15:45:54.148Z,98749.63
2023-03-11T15:48:21.097Z,98751.22
2023-03-11T15:50:55.476Z,98657.34
2023-03-11T15:53:22.697Z,98593.13
2023-03-11T15:55:49.114Z,98642.19
2023-03-11T15:58:16.763Z,98624.31
2023-03-11T16:00:47.486Z,98557.34
2023-03-11T16:03:13.911Z,98562.25
2023-03-11T16:05:40.659Z,98470.13
2023-03-11T16:08:07.021Z,98473.75
2023-03-11T16:10:33.384Z,98561.41
2023-03-11T16:12:59.860Z,98670.44
2023-03-11T16:15:28.746Z,98635.13
2023-03-11T16:17:56.872Z,98645.88
2023-03-11T16:20:24.630Z,98608.50
2023-03-11T16:22:55.481Z,98458.16
2023-03-11T16:25:27.991Z,98474.69
2023-03-11T16:27:55.136Z,98444.41
2023-03-11T16:30:21.861Z,98393.41
2023-03-11T16:32:48.726Z,98279.47
2023-03-11T16:35:15.246Z,98316.75
2023-03-11T16:37:43.264Z,98249.53
2023-03-11T16:40:17.891Z,98320.97
2023-03-11T16:42:44.263Z,98350.34
2023-03-11T16:45:12.095Z,98409.44
2023-03-11T16:47:38.545Z,98452.94
2023-03-11T16:50:05.512Z,98465.41
2023-03-11T16:52:31.955Z,98451.34
2023-03-11T16:54:59.779Z,98369.41
2023-03-11T16:57:26.140Z,98353.88
2023-03-11T16:59:52.485Z,98364.56
2023-03-11T17:02:19.587Z,98309.25
2023-03-11T17:04:45.997Z,98291.41
2023-03-11T17:07:12.376Z,98239.81
2023-03-11T17:09:39.326Z,98251.03
2023-03-11T17:12:06.177Z,98240.81
2023-03-11T17:14:32.591Z,98212.53
2023-03-11T17:16:59.149Z,98170.69
2023-03-11T17:19:25.659Z,98189.81
2023-03-11T17:21:52.089Z,98189.81
2023-03-11T17:24:19.195Z,98170.78
2023-03-11T17:26:45.578Z,98179.78
2023-03-11T17:29:11.940Z,98182.63
2023-03-11T17:31:38.418Z,98123.19
2023-03-11T17:34:04.827Z,98072.34
2023-03-11T17:36:31.202Z,98045.75
2023-03-11T17:38:59.014Z,97930.41
2023-03-11T17:41:25.353Z,97922.13
2023-03-11T17:43:51.778Z,97910.09
2023-03-11T17:46:19.052Z,97854.16
2023-03-11T17:48:46.370Z,97854.31
2023-03-11T17:51:14.276Z,97855.34
2023-03-11T17:53:42.795Z,97835.19
2023-03-11T17:56:10.973Z,97795.59
2023-03-11T17:58:37.336Z,97711.44
2023-03-11T18:01:07.901Z,97562.03
2023-03-11T18:03:34.265Z,97540.59
2023-03-11T18:06:01.988Z,97523.56
2023-03-11T18:08:28.568Z,97558.06
2023-03-11T18:10:57.961Z,97582.94
2023-03-11T18:13:24.351Z,97545.28
2023-03-11T18:16:01.288Z,97596.94
2023-03-11T18:18:28.377Z,97643.59
2023-03-11T18:20:54.846Z,97687.66
2023-03-11T18:23:21.380Z,97721.09
2023-03-11T18:25:51.918Z,97735.97
2023-03-11T18:28:18.301Z,97703.34
2023-03-11T18:30:45.739Z,97724.13
2023-03-11T18:33:12.508Z,97765.56
2023-03-11T18:35:38.886Z,97794.06
2023-03-11T18:38:05.353Z,97766.44
2023-03-11T18:40:31.706Z,97763.84
2023-03-11T18:42:58.082Z,97796.78
2023-03-11T18:45:24.480Z,97765.81
2023-03-11T18:47:50.851Z,97715.91
2023-03-11T18:50:17.349Z,97717.78
2023-03-11T18:52:43.724Z,97661.94
2023-03-11T18:55:10.222Z,97652.91
2023-03-11T18:57:36.599Z,97662.31
2023-03-11T19:00:04.189Z,97662.53
2023-03-11T19:02:30.585Z,97680.56
2023-03-11T19:04:57.014Z,97696.06
2023-03-11T19:07:23.406Z,97698.81
2023-03-11T19:09:49.896Z,97715.25
2023-03-11T19:12:16.248Z,97735.09
2023-03-11T19:14:42.780Z,97735.09
2023-03-11T19:17:09.262Z,97749.91
2023-03-11T19:19:35.662Z,97725.00
2023-03-11T19:22:02.106Z,97704.56
2023-03-11T19:24:28.449Z,97716.72
2023-03-11T19:26:54.782Z,97732.31
2023-03-11T19:29:23.700Z,97726.19
2023-03-11T19:31:50.378Z,97721.31
2023-03-11T19:34:16.828Z,97729.97
2023-03-11T19:36:43.310Z,97735.25
2023-03-11T19:39:09.744Z,97747.31
2023-03-11T19:41:36.178Z,97753.31
2023-03-11T19:44:04.418Z,97756.84
2023-03-11T19:46:34.329Z,97748.25
2023-03-11T19:49:00.840Z,97731.31
2023-03-11T19:51:32.930Z,97690.16
2023-03-11T19:54:05.524Z,97634.22
2023-03-11T19:56:32.122Z,97629.19
2023-03-11T19:58:58.492Z,97621.69
2023-03-11T20:01:28.132Z,97622.66
2023-03-11T20:03:54.524Z,97624.25
2023-03-11T20:06:22.588Z,97640.00
2023-03-11T20:08:49.984Z,97641.66
2023-03-11T20:11:16.701Z,97652.81
2023-03-11T20:13:43.987Z,97647.78
2023-03-11T20:16:12.669Z,97633.25
2023-03-11T20:18:39.578Z,97600.59
2023-03-11T20:21:07.296Z,97558.50
2023-03-11T20:23:34.150Z,97558.50
2023-03-11T20:26:03.938Z,97538.69
2023-03-11T20:28:30.285Z,97557.00
2023-03-11T20:30:56.715Z,97546.63
2023-03-11T20:33:23.185Z,97531.25
2023-03-11T20:35:49.685Z,97477.16
2023-03-11T20:38:17.802Z,97460.97
2023-03-11T20:40:44.282Z,97449.97
2023-03-11T20:43:10.699Z,97463.63
2023-03-11T20:45:37.055Z,97476.59
2023-03-11T20:48:03.546Z,97481.03
2023-03-11T20:50:29.924Z,97482.69
2023-03-11T20:52:56.405Z,97484.41
2023-03-11T20:55:22.977Z,97485.16
2023-03-11T20:57:49.437Z,97521.31
2023-03-11T21:00:16.153Z,97557.56
2023-03-11T21:02:43.084Z,97552.41
2023-03-11T21:05:10.188Z,97553.22
2023-03-11T21:07:36.748Z,97570.50
2023-03-11T21:10:08.280Z,97552.41
2023-03-11T21:12:34.818Z,97562.78
2023-03-11T21:15:01.223Z,97586.78
2023-03-11T21:17:27.638Z,97602.25
2023-03-11T21:19:54.094Z,97580.09
2023-03-11T21:22:20.510Z,97565.66
2023-03-11T21:24:53.500Z,97588.84
2023-03-11T21:27:25.771Z,97578.75
2023-03-11T21:29:53.437Z,97576.16
2023-03-11T21:32:20.277Z,97566.88
2023-03-11T21:34:46.872Z,97564.53
2023-03-11T21:37:13.302Z,97548.16
2023-03-11T21:39:39.850Z,97536.06
2023-03-11T21:42:06.377Z,97540.38
2023-03-11T21:44:32.857Z,97544.47
2023-03-11T21:46:59.476Z,97558.41
2023-03-11T21:49:26.085Z,97551.66
2023-03-11T21:51:52.681Z,97537.13
2023-03-11T21:54:19.172Z,97519.94
2023-03-11T21:56:45.702Z,97515.81
2023-03-11T21:59:12.165Z,97526.13
2023-03-11T22:01:38.943Z,97538.94
2023-03-11T22:04:05.702Z,97515.81
2023-03-11T22:06:33.292Z,97533.03
2023-03-11T22:09:00.730Z,97514.91
2023-03-11T22:11:27.111Z,97514.00
2023-03-11T22:13:54.416Z,97526.22
2023-03-11T22:16:21.460Z,97531.25
2023-03-11T22:18:48.178Z,97526.22
2023-03-11T22:21:15.298Z,97520.41
2023-03-11T22:23:42.408Z,97517.72
2023-03-11T22:26:08.917Z,97531.38
2023-03-11T22:28:35.292Z,97541.78
2023-03-11T22:31:06.590Z,97526.31
2023-03-11T22:33:34.241Z,97527.41
2023-03-11T22:36:02.041Z,97494.81
2023-03-11T22:38:30.121Z,97495.88
2023-03-11T22:40:56.522Z,97489.06
2023-03-11T22:43:23.104Z,97487.50
2023-03-11T22:45:49.503Z,97469.31
2023-03-11T22:48:15.884Z,97456.56
2023-03-11T22:50:44.441Z,97434.41
2023-03-11T22:53:15.099Z,97426.84
2023-03-11T22:55:42.411Z,97401.16
2023-03-11T22:58:08.805Z,97392.53
2023-03-11T23:00:35.432Z,97396.78
2023-03-11T23:03:01.861Z,97407.03
2023-03-11T23:05:28.266Z,97406.97
2023-03-11T23:07:54.645Z,97414.75
2023-03-11T23:10:21.606Z,97406.13
2023-03-11T23:12:48.279Z,97411.31
2023-03-11T23:15:16.488Z,97427.59
2023-03-11T23:17:42.899Z,97442.44
2023-03-11T23:20:11.953Z,97436.31
2023-03-11T23:22:38.643Z,97423.38
2023-03-11T23:25:06.427Z,97444.09
2023-03-11T23:27:32.818Z,97450.22
2023-03-11T23:29:59.213Z,97432.19
2023-03-11T23:32:25.769Z,97433.09
2023-03-11T23:34:52.203Z,97446.97
2023-03-11T23:37:18.853Z,97431.53
2023-03-11T23:39:45.190Z,97440.16
2023-03-11T23:42:24.621Z,97448.88
2023-03-11T23:44:52.211Z,97438.44
2023-03-11T23:47:18.642Z,97460.19
2023-03-11T23:49:45.027Z,97453.38
2023-03-11T23:52:11.388Z,97449.94
2023-03-11T23:54:38.040Z,97452.47
2023-03-11T23:57:04.454Z,97460.06
2023-03-11T23:59:30.996Z,97466.09
